sensor_id;sensor_type;location;lat;lon;timestamp;P1;durP1;ratioP1;P2;durP2;ratioP2
25249;SDS011;13201;51.148;13.738;2023-08-06T00:00:37;4.28;;;3.10;;
25249;SDS011;13201;51.148;13.738;2023-08-06T00:03:03;4.47;;;3.30;;
25249;SDS011;13201;51.148;13.738;2023-08-06T00:05:29;4.70;;;3.00;;
25249;SDS011;13201;51.148;13.738;2023-08-06T00:07:54;8.25;;;3.47;;
25249;SDS011;13201;51.148;13.738;2023-08-06T00:10:20;5.82;;;3.58;;
25249;SDS011;13201;51.148;13.738;2023-08-06T00:12:46;5.22;;;3.88;;
25249;SDS011;13201;51.148;13.738;2023-08-06T00:15:11;8.55;;;3.92;;
25249;SDS011;13201;51.148;13.738;2023-08-06T00:17:37;7.13;;;3.42;;
25249;SDS011;13201;51.148;13.738;2023-08-06T00:20:03;4.65;;;3.50;;
25249;SDS011;13201;51.148;13.738;2023-08-06T00:22:40;4.55;;;3.65;;
25249;SDS011;13201;51.148;13.738;2023-08-06T00:25:05;5.72;;;3.72;;
25249;SDS011;13201;51.148;13.738;2023-08-06T00:27:31;5.80;;;3.95;;
25249;SDS011;13201;51.148;13.738;2023-08-06T00:29:57;5.70;;;3.70;;
25249;SDS011;13201;51.148;13.738;2023-08-06T00:32:23;8.43;;;3.83;;
25249;SDS011;13201;51.148;13.738;2023-08-06T00:34:49;4.90;;;3.85;;
25249;SDS011;13201;51.148;13.738;2023-08-06T00:37:18;6.38;;;3.40;;
25249;SDS011;13201;51.148;13.738;2023-08-06T00:39:44;4.72;;;3.63;;
25249;SDS011;13201;51.148;13.738;2023-08-06T00:42:13;4.25;;;3.30;;
25249;SDS011;13201;51.148;13.738;2023-08-06T00:44:38;6.85;;;3.45;;
25249;SDS011;13201;51.148;13.738;2023-08-06T00:47:05;4.30;;;3.88;;
25249;SDS011;13201;51.148;13.738;2023-08-06T00:49:32;6.82;;;3.47;;
25249;SDS011;13201;51.148;13.738;2023-08-06T00:52:00;5.53;;;3.72;;
25249;SDS011;13201;51.148;13.738;2023-08-06T00:54:26;4.60;;;3.30;;
25249;SDS011;13201;51.148;13.738;2023-08-06T00:56:52;4.50;;;3.55;;
25249;SDS011;13201;51.148;13.738;2023-08-06T00:59:18;4.32;;;2.97;;
25249;SDS011;13201;51.148;13.738;2023-08-06T01:01:45;4.80;;;3.08;;
25249;SDS011;13201;51.148;13.738;2023-08-06T01:29:25;6.20;;;4.03;;
25249;SDS011;13201;51.148;13.738;2023-08-06T01:31:56;5.80;;;4.00;;
25249;SDS011;13201;51.148;13.738;2023-08-06T01:34:24;5.07;;;4.43;;
25249;SDS011;13201;51.148;13.738;2023-08-06T01:36:52;4.82;;;4.13;;
25249;SDS011;13201;51.148;13.738;2023-08-06T01:39:19;8.43;;;4.17;;
25249;SDS011;13201;51.148;13.738;2023-08-06T01:44:12;4.47;;;3.80;;
25249;SDS011;13201;51.148;13.738;2023-08-06T01:46:38;5.25;;;4.15;;
25249;SDS011;13201;51.148;13.738;2023-08-06T01:49:03;4.88;;;3.63;;
25249;SDS011;13201;51.148;13.738;2023-08-06T01:51:29;4.70;;;3.80;;
25249;SDS011;13201;51.148;13.738;2023-08-06T01:53:55;5.00;;;3.85;;
25249;SDS011;13201;51.148;13.738;2023-08-06T01:56:20;5.32;;;4.00;;
25249;SDS011;13201;51.148;13.738;2023-08-06T01:58:46;4.40;;;3.58;;
25249;SDS011;13201;51.148;13.738;2023-08-06T02:01:12;3.97;;;3.42;;
25249;SDS011;13201;51.148;13.738;2023-08-06T02:03:37;6.45;;;3.83;;
25249;SDS011;13201;51.148;13.738;2023-08-06T02:06:03;4.78;;;3.75;;
25249;SDS011;13201;51.148;13.738;2023-08-06T02:08:29;3.40;;;3.10;;
25249;SDS011;13201;51.148;13.738;2023-08-06T02:10:55;4.50;;;3.58;;
25249;SDS011;13201;51.148;13.738;2023-08-06T02:13:21;5.13;;;3.90;;
25249;SDS011;13201;51.148;13.738;2023-08-06T02:15:46;5.07;;;3.67;;
25249;SDS011;13201;51.148;13.738;2023-08-06T02:18:13;5.40;;;4.25;;
25249;SDS011;13201;51.148;13.738;2023-08-06T02:20:40;7.70;;;4.28;;
25249;SDS011;13201;51.148;13.738;2023-08-06T02:23:06;5.63;;;4.20;;
25249;SDS011;13201;51.148;13.738;2023-08-06T02:25:31;4.75;;;3.70;;
25249;SDS011;13201;51.148;13.738;2023-08-06T02:27:57;5.43;;;4.03;;
25249;SDS011;13201;51.148;13.738;2023-08-06T02:30:23;5.50;;;4.25;;
25249;SDS011;13201;51.148;13.738;2023-08-06T02:32:48;6.35;;;3.78;;
25249;SDS011;13201;51.148;13.738;2023-08-06T02:35:14;5.75;;;3.90;;
25249;SDS011;13201;51.148;13.738;2023-08-06T02:37:40;4.03;;;3.58;;
25249;SDS011;13201;51.148;13.738;2023-08-06T02:40:06;3.83;;;3.38;;
25249;SDS011;13201;51.148;13.738;2023-08-06T02:42:32;5.18;;;4.03;;
25249;SDS011;13201;51.148;13.738;2023-08-06T02:44:57;7.05;;;3.70;;
25249;SDS011;13201;51.148;13.738;2023-08-06T02:47:23;7.18;;;3.95;;
25249;SDS011;13201;51.148;13.738;2023-08-06T02:49:49;6.22;;;4.25;;
25249;SDS011;13201;51.148;13.738;2023-08-06T02:52:14;4.88;;;3.80;;
25249;SDS011;13201;51.148;13.738;2023-08-06T02:54:40;9.35;;;4.00;;
25249;SDS011;13201;51.148;13.738;2023-08-06T02:57:06;6.82;;;4.18;;
25249;SDS011;13201;51.148;13.738;2023-08-06T02:59:32;6.13;;;4.28;;
25249;SDS011;13201;51.148;13.738;2023-08-06T03:01:58;6.27;;;4.30;;
25249;SDS011;13201;51.148;13.738;2023-08-06T03:04:23;5.90;;;4.15;;
25249;SDS011;13201;51.148;13.738;2023-08-06T03:06:49;4.63;;;3.95;;
25249;SDS011;13201;51.148;13.738;2023-08-06T03:09:16;5.78;;;3.80;;
25249;SDS011;13201;51.148;13.738;2023-08-06T03:11:42;5.40;;;4.03;;
25249;SDS011;13201;51.148;13.738;2023-08-06T03:14:07;4.18;;;3.63;;
25249;SDS011;13201;51.148;13.738;2023-08-06T03:16:33;5.40;;;3.72;;
25249;SDS011;13201;51.148;13.738;2023-08-06T03:18:59;4.83;;;3.90;;
25249;SDS011;13201;51.148;13.738;2023-08-06T03:21:25;4.32;;;3.63;;
25249;SDS011;13201;51.148;13.738;2023-08-06T03:23:51;3.90;;;3.50;;
25249;SDS011;13201;51.148;13.738;2023-08-06T03:26:16;5.60;;;4.10;;
25249;SDS011;13201;51.148;13.738;2023-08-06T03:28:42;4.38;;;3.78;;
25249;SDS011;13201;51.148;13.738;2023-08-06T03:31:08;5.57;;;3.72;;
25249;SDS011;13201;51.148;13.738;2023-08-06T03:33:34;5.80;;;3.45;;
25249;SDS011;13201;51.148;13.738;2023-08-06T03:35:59;5.38;;;3.40;;
25249;SDS011;13201;51.148;13.738;2023-08-06T03:38:25;8.43;;;3.45;;
25249;SDS011;13201;51.148;13.738;2023-08-06T03:40:51;3.50;;;3.20;;
25249;SDS011;13201;51.148;13.738;2023-08-06T03:43:17;4.60;;;3.47;;
25249;SDS011;13201;51.148;13.738;2023-08-06T03:45:43;3.72;;;3.33;;
25249;SDS011;13201;51.148;13.738;2023-08-06T03:48:09;3.92;;;2.47;;
25249;SDS011;13201;51.148;13.738;2023-08-06T03:50:34;4.18;;;3.25;;
25249;SDS011;13201;51.148;13.738;2023-08-06T03:53:01;5.97;;;3.78;;
25249;SDS011;13201;51.148;13.738;2023-08-06T03:55:27;4.90;;;3.80;;
25249;SDS011;13201;51.148;13.738;2023-08-06T03:57:52;6.45;;;4.10;;
25249;SDS011;13201;51.148;13.738;2023-08-06T04:00:18;5.30;;;3.85;;
25249;SDS011;13201;51.148;13.738;2023-08-06T04:02:44;4.38;;;3.75;;
25249;SDS011;13201;51.148;13.738;2023-08-06T04:05:09;5.97;;;4.60;;
25249;SDS011;13201;51.148;13.738;2023-08-06T04:07:35;5.55;;;4.30;;
25249;SDS011;13201;51.148;13.738;2023-08-06T04:10:02;6.20;;;4.20;;
25249;SDS011;13201;51.148;13.738;2023-08-06T04:12:29;6.40;;;4.70;;
25249;SDS011;13201;51.148;13.738;2023-08-06T04:14:56;5.00;;;4.20;;
25249;SDS011;13201;51.148;13.738;2023-08-06T04:17:23;5.30;;;4.05;;
25249;SDS011;13201;51.148;13.738;2023-08-06T04:19:49;6.30;;;4.72;;
25249;SDS011;13201;51.148;13.738;2023-08-06T04:22:16;5.00;;;4.30;;
25249;SDS011;13201;51.148;13.738;2023-08-06T04:24:42;5.97;;;4.38;;
25249;SDS011;13201;51.148;13.738;2023-08-06T04:27:12;5.03;;;4.28;;
25249;SDS011;13201;51.148;13.738;2023-08-06T04:29:38;5.65;;;4.35;;
25249;SDS011;13201;51.148;13.738;2023-08-06T04:32:04;5.55;;;4.57;;
25249;SDS011;13201;51.148;13.738;2023-08-06T04:34:31;5.03;;;3.72;;
25249;SDS011;13201;51.148;13.738;2023-08-06T04:36:58;5.13;;;4.22;;
25249;SDS011;13201;51.148;13.738;2023-08-06T04:39:24;4.30;;;3.83;;
25249;SDS011;13201;51.148;13.738;2023-08-06T04:41:49;5.88;;;4.65;;
25249;SDS011;13201;51.148;13.738;2023-08-06T04:44:15;5.65;;;4.35;;
25249;SDS011;13201;51.148;13.738;2023-08-06T04:46:41;4.90;;;4.03;;
25249;SDS011;13201;51.148;13.738;2023-08-06T04:49:06;4.18;;;3.65;;
25249;SDS011;13201;51.148;13.738;2023-08-06T04:51:32;4.43;;;3.72;;
25249;SDS011;13201;51.148;13.738;2023-08-06T04:53:58;4.70;;;3.90;;
25249;SDS011;13201;51.148;13.738;2023-08-06T04:56:23;4.30;;;3.80;;
25249;SDS011;13201;51.148;13.738;2023-08-06T04:58:49;4.45;;;3.72;;
25249;SDS011;13201;51.148;13.738;2023-08-06T05:01:15;5.93;;;4.00;;
25249;SDS011;13201;51.148;13.738;2023-08-06T05:03:41;4.80;;;3.67;;
25249;SDS011;13201;51.148;13.738;2023-08-06T05:06:07;6.20;;;3.70;;
25249;SDS011;13201;51.148;13.738;2023-08-06T05:08:32;4.13;;;3.30;;
25249;SDS011;13201;51.148;13.738;2023-08-06T05:10:58;3.20;;;2.70;;
25249;SDS011;13201;51.148;13.738;2023-08-06T05:13:24;3.38;;;2.75;;
25249;SDS011;13201;51.148;13.738;2023-08-06T05:15:50;3.45;;;3.00;;
25249;SDS011;13201;51.148;13.738;2023-08-06T05:18:16;3.95;;;3.28;;
25249;SDS011;13201;51.148;13.738;2023-08-06T05:20:42;4.07;;;2.90;;
25249;SDS011;13201;51.148;13.738;2023-08-06T05:23:08;3.78;;;3.10;;
25249;SDS011;13201;51.148;13.738;2023-08-06T05:25:34;4.07;;;3.30;;
25249;SDS011;13201;51.148;13.738;2023-08-06T05:28:01;4.07;;;2.97;;
25249;SDS011;13201;51.148;13.738;2023-08-06T05:30:27;4.37;;;3.17;;
25249;SDS011;13201;51.148;13.738;2023-08-06T05:32:53;4.23;;;3.33;;
25249;SDS011;13201;51.148;13.738;2023-08-06T05:37:46;3.40;;;3.03;;
25249;SDS011;13201;51.148;13.738;2023-08-06T05:40:12;4.82;;;3.17;;
25249;SDS011;13201;51.148;13.738;2023-08-06T05:42:37;4.70;;;3.42;;
25249;SDS011;13201;51.148;13.738;2023-08-06T05:45:04;5.43;;;3.55;;
25249;SDS011;13201;51.148;13.738;2023-08-06T05:47:30;4.22;;;3.80;;
25249;SDS011;13201;51.148;13.738;2023-08-06T05:49:56;4.75;;;4.07;;
25249;SDS011;13201;51.148;13.738;2023-08-06T05:52:21;5.32;;;4.32;;
25249;SDS011;13201;51.148;13.738;2023-08-06T05:54:47;4.70;;;3.65;;
25249;SDS011;13201;51.148;13.738;2023-08-06T05:57:13;4.90;;;4.10;;
25249;SDS011;13201;51.148;13.738;2023-08-06T05:59:40;5.32;;;4.32;;
25249;SDS011;13201;51.148;13.738;2023-08-06T06:02:06;6.40;;;4.00;;
25249;SDS011;13201;51.148;13.738;2023-08-06T06:04:31;5.53;;;4.10;;
25249;SDS011;13201;51.148;13.738;2023-08-06T06:06:57;6.28;;;4.75;;
25249;SDS011;13201;51.148;13.738;2023-08-06T06:09:23;4.90;;;4.40;;
25249;SDS011;13201;51.148;13.738;2023-08-06T06:11:48;4.93;;;3.83;;
25249;SDS011;13201;51.148;13.738;2023-08-06T06:14:15;4.90;;;4.40;;
25249;SDS011;13201;51.148;13.738;2023-08-06T06:16:44;5.88;;;4.50;;
25249;SDS011;13201;51.148;13.738;2023-08-06T06:19:10;6.30;;;4.95;;
25249;SDS011;13201;51.148;13.738;2023-08-06T06:21:37;5.22;;;3.92;;
25249;SDS011;13201;51.148;13.738;2023-08-06T06:24:04;5.03;;;4.03;;
25249;SDS011;13201;51.148;13.738;2023-08-06T06:26:31;5.10;;;2.67;;
25249;SDS011;13201;51.148;13.738;2023-08-06T06:28:57;3.65;;;3.25;;
25249;SDS011;13201;51.148;13.738;2023-08-06T06:31:23;6.20;;;3.05;;
25249;SDS011;13201;51.148;13.738;2023-08-06T06:33:48;3.45;;;3.15;;
25249;SDS011;13201;51.148;13.738;2023-08-06T06:36:14;4.05;;;3.08;;
25249;SDS011;13201;51.148;13.738;2023-08-06T06:38:40;3.40;;;2.70;;
25249;SDS011;13201;51.148;13.738;2023-08-06T06:41:05;3.03;;;2.35;;
25249;SDS011;13201;51.148;13.738;2023-08-06T06:43:31;2.80;;;2.50;;
25249;SDS011;13201;51.148;13.738;2023-08-06T06:45:58;3.10;;;2.80;;
25249;SDS011;13201;51.148;13.738;2023-08-06T06:48:25;3.20;;;2.88;;
25249;SDS011;13201;51.148;13.738;2023-08-06T06:50:52;3.10;;;2.50;;
25249;SDS011;13201;51.148;13.738;2023-08-06T06:53:18;3.47;;;2.70;;
25249;SDS011;13201;51.148;13.738;2023-08-06T06:55:43;2.70;;;2.47;;
25249;SDS011;13201;51.148;13.738;2023-08-06T06:58:09;3.67;;;2.75;;
25249;SDS011;13201;51.148;13.738;2023-08-06T07:00:35;2.85;;;2.55;;
25249;SDS011;13201;51.148;13.738;2023-08-06T07:03:02;3.10;;;2.65;;
25249;SDS011;13201;51.148;13.738;2023-08-06T07:05:28;3.83;;;2.83;;
25249;SDS011;13201;51.148;13.738;2023-08-06T07:07:54;3.95;;;2.67;;
25249;SDS011;13201;51.148;13.738;2023-08-06T07:10:19;3.05;;;2.45;;
25249;SDS011;13201;51.148;13.738;2023-08-06T07:12:45;3.63;;;2.60;;
25249;SDS011;13201;51.148;13.738;2023-08-06T07:15:11;3.03;;;2.70;;
25249;SDS011;13201;51.148;13.738;2023-08-06T07:17:36;2.60;;;2.40;;
25249;SDS011;13201;51.148;13.738;2023-08-06T07:20:02;2.80;;;2.40;;
25249;SDS011;13201;51.148;13.738;2023-08-06T07:22:29;5.72;;;2.53;;
25249;SDS011;13201;51.148;13.738;2023-08-06T07:24:55;3.97;;;2.67;;
25249;SDS011;13201;51.148;13.738;2023-08-06T07:27:20;4.28;;;2.80;;
25249;SDS011;13201;51.148;13.738;2023-08-06T07:29:46;3.08;;;2.78;;
25249;SDS011;13201;51.148;13.738;2023-08-06T07:34:39;3.83;;;3.10;;
25249;SDS011;13201;51.148;13.738;2023-08-06T07:37:04;3.97;;;3.38;;
25249;SDS011;13201;51.148;13.738;2023-08-06T07:39:30;6.43;;;3.93;;
25249;SDS011;13201;51.148;13.738;2023-08-06T07:41:56;8.88;;;3.60;;
25249;SDS011;13201;51.148;13.738;2023-08-06T07:44:22;4.85;;;3.47;;
25249;SDS011;13201;51.148;13.738;2023-08-06T07:46:49;5.75;;;4.28;;
25249;SDS011;13201;51.148;13.738;2023-08-06T07:49:14;5.13;;;4.07;;
25249;SDS011;13201;51.148;13.738;2023-08-06T07:51:40;7.32;;;4.50;;
25249;SDS011;13201;51.148;13.738;2023-08-06T07:54:06;5.68;;;4.38;;
25249;SDS011;13201;51.148;13.738;2023-08-06T07:56:32;7.80;;;5.17;;
25249;SDS011;13201;51.148;13.738;2023-08-06T07:58:58;5.47;;;4.70;;
25249;SDS011;13201;51.148;13.738;2023-08-06T08:01:23;8.30;;;4.75;;
25249;SDS011;13201;51.148;13.738;2023-08-06T08:03:49;5.80;;;4.63;;
25249;SDS011;13201;51.148;13.738;2023-08-06T08:06:15;6.47;;;4.50;;
25249;SDS011;13201;51.148;13.738;2023-08-06T08:08:40;6.15;;;5.10;;
25249;SDS011;13201;51.148;13.738;2023-08-06T08:11:06;7.05;;;5.43;;
25249;SDS011;13201;51.148;13.738;2023-08-06T08:13:32;7.80;;;5.07;;
25249;SDS011;13201;51.148;13.738;2023-08-06T08:15:59;6.35;;;5.40;;
25249;SDS011;13201;51.148;13.738;2023-08-06T08:18:25;8.38;;;5.72;;
25249;SDS011;13201;51.148;13.738;2023-08-06T08:20:51;6.47;;;5.13;;
25249;SDS011;13201;51.148;13.738;2023-08-06T08:23:16;5.60;;;4.68;;
25249;SDS011;13201;51.148;13.738;2023-08-06T08:25:42;6.60;;;4.45;;
25249;SDS011;13201;51.148;13.738;2023-08-06T08:28:08;5.72;;;4.28;;
25249;SDS011;13201;51.148;13.738;2023-08-06T08:30:33;6.00;;;4.03;;
25249;SDS011;13201;51.148;13.738;2023-08-06T08:32:59;5.13;;;4.28;;
25249;SDS011;13201;51.148;13.738;2023-08-06T08:35:25;5.47;;;4.13;;
25249;SDS011;13201;51.148;13.738;2023-08-06T08:37:51;4.55;;;3.45;;
25249;SDS011;13201;51.148;13.738;2023-08-06T08:40:17;4.40;;;3.38;;
25249;SDS011;13201;51.148;13.738;2023-08-06T08:42:43;6.03;;;3.70;;
25249;SDS011;13201;51.148;13.738;2023-08-06T08:45:12;4.27;;;3.17;;
25249;SDS011;13201;51.148;13.738;2023-08-06T08:47:40;3.47;;;2.85;;
25249;SDS011;13201;51.148;13.738;2023-08-06T08:50:07;4.10;;;2.80;;
25249;SDS011;13201;51.148;13.738;2023-08-06T08:52:35;4.70;;;2.83;;
25249;SDS011;13201;51.148;13.738;2023-08-06T08:55:01;5.57;;;2.83;;
25249;SDS011;13201;51.148;13.738;2023-08-06T08:57:27;3.37;;;3.07;;
25249;SDS011;13201;51.148;13.738;2023-08-06T08:59:53;4.22;;;3.20;;
25249;SDS011;13201;51.148;13.738;2023-08-06T09:02:19;3.00;;;2.67;;
25249;SDS011;13201;51.148;13.738;2023-08-06T09:04:48;3.78;;;2.78;;
25249;SDS011;13201;51.148;13.738;2023-08-06T09:07:16;5.03;;;2.63;;
25249;SDS011;13201;51.148;13.738;2023-08-06T09:09:44;3.38;;;2.72;;
25249;SDS011;13201;51.148;13.738;2023-08-06T09:12:15;10.23;;;2.45;;
25249;SDS011;13201;51.148;13.738;2023-08-06T09:14:41;3.05;;;2.05;;
25249;SDS011;13201;51.148;13.738;2023-08-06T09:17:08;2.93;;;2.00;;
25249;SDS011;13201;51.148;13.738;2023-08-06T09:19:35;2.60;;;2.30;;
25249;SDS011;13201;51.148;13.738;2023-08-06T09:22:01;4.22;;;2.30;;
25249;SDS011;13201;51.148;13.738;2023-08-06T09:24:28;3.17;;;2.50;;
25249;SDS011;13201;51.148;13.738;2023-08-06T09:26:53;3.30;;;2.13;;
25249;SDS011;13201;51.148;13.738;2023-08-06T09:29:19;4.97;;;2.20;;
25249;SDS011;13201;51.148;13.738;2023-08-06T09:31:46;2.88;;;2.20;;
25249;SDS011;13201;51.148;13.738;2023-08-06T09:34:17;2.92;;;1.95;;
25249;SDS011;13201;51.148;13.738;2023-08-06T09:36:51;2.20;;;1.92;;
25249;SDS011;13201;51.148;13.738;2023-08-06T09:39:19;2.40;;;1.92;;
25249;SDS011;13201;51.148;13.738;2023-08-06T09:41:46;2.47;;;1.95;;
25249;SDS011;13201;51.148;13.738;2023-08-06T09:44:19;4.18;;;2.10;;
25249;SDS011;13201;51.148;13.738;2023-08-06T09:46:47;4.13;;;2.30;;
25249;SDS011;13201;51.148;13.738;2023-08-06T09:49:21;3.75;;;2.03;;
25249;SDS011;13201;51.148;13.738;2023-08-06T09:51:52;2.33;;;2.08;;
25249;SDS011;13201;51.148;13.738;2023-08-06T09:54:21;3.53;;;1.98;;
25249;SDS011;13201;51.148;13.738;2023-08-06T09:56:48;3.17;;;2.10;;
25249;SDS011;13201;51.148;13.738;2023-08-06T09:59:14;2.45;;;2.25;;
25249;SDS011;13201;51.148;13.738;2023-08-06T10:01:41;2.37;;;2.10;;
25249;SDS011;13201;51.148;13.738;2023-08-06T10:04:07;3.40;;;2.10;;
25249;SDS011;13201;51.148;13.738;2023-08-06T10:06:37;3.97;;;2.47;;
25249;SDS011;13201;51.148;13.738;2023-08-06T10:09:03;2.67;;;2.10;;
25249;SDS011;13201;51.148;13.738;2023-08-06T10:11:29;3.00;;;2.30;;
25249;SDS011;13201;51.148;13.738;2023-08-06T10:14:04;6.68;;;2.40;;
25249;SDS011;13201;51.148;13.738;2023-08-06T10:16:41;3.25;;;2.30;;
25249;SDS011;13201;51.148;13.738;2023-08-06T10:21:34;3.20;;;2.40;;
25249;SDS011;13201;51.148;13.738;2023-08-06T10:24:00;4.22;;;2.70;;
25249;SDS011;13201;51.148;13.738;2023-08-06T10:26:28;3.88;;;2.40;;
25249;SDS011;13201;51.148;13.738;2023-08-06T10:28:55;3.00;;;2.25;;
25249;SDS011;13201;51.148;13.738;2023-08-06T10:34:18;3.30;;;2.70;;
25249;SDS011;13201;51.148;13.738;2023-08-06T10:36:44;4.30;;;2.65;;
25249;SDS011;13201;51.148;13.738;2023-08-06T10:39:13;3.60;;;2.72;;
25249;SDS011;13201;51.148;13.738;2023-08-06T10:41:39;3.33;;;2.63;;
25249;SDS011;13201;51.148;13.738;2023-08-06T10:44:08;3.50;;;2.42;;
25249;SDS011;13201;51.148;13.738;2023-08-06T10:46:35;3.30;;;2.50;;
25249;SDS011;13201;51.148;13.738;2023-08-06T10:49:02;4.20;;;2.80;;
25249;SDS011;13201;51.148;13.738;2023-08-06T10:53:54;3.63;;;3.20;;
25249;SDS011;13201;51.148;13.738;2023-08-06T10:56:21;4.35;;;2.80;;
25249;SDS011;13201;51.148;13.738;2023-08-06T10:58:48;3.63;;;2.90;;
25249;SDS011;13201;51.148;13.738;2023-08-06T11:01:15;3.80;;;2.72;;
25249;SDS011;13201;51.148;13.738;2023-08-06T11:03:42;3.73;;;2.53;;
25249;SDS011;13201;51.148;13.738;2023-08-06T11:06:09;3.00;;;2.60;;
25249;SDS011;13201;51.148;13.738;2023-08-06T11:08:35;3.25;;;2.90;;
25249;SDS011;13201;51.148;13.738;2023-08-06T11:11:12;5.03;;;2.90;;
25249;SDS011;13201;51.148;13.738;2023-08-06T11:13:42;3.75;;;2.83;;
25249;SDS011;13201;51.148;13.738;2023-08-06T11:16:11;3.72;;;2.92;;
25249;SDS011;13201;51.148;13.738;2023-08-06T11:18:40;5.20;;;2.60;;
25249;SDS011;13201;51.148;13.738;2023-08-06T11:21:09;6.47;;;3.03;;
25249;SDS011;13201;51.148;13.738;2023-08-06T11:23:37;3.20;;;2.85;;
25249;SDS011;13201;51.148;13.738;2023-08-06T11:26:03;4.45;;;2.50;;
25249;SDS011;13201;51.148;13.738;2023-08-06T11:28:29;3.30;;;2.50;;
25249;SDS011;13201;51.148;13.738;2023-08-06T11:30:54;3.35;;;2.53;;
25249;SDS011;13201;51.148;13.738;2023-08-06T11:33:25;4.75;;;2.90;;
25249;SDS011;13201;51.148;13.738;2023-08-06T11:35:51;2.88;;;2.58;;
25249;SDS011;13201;51.148;13.738;2023-08-06T11:38:17;3.42;;;2.35;;
25249;SDS011;13201;51.148;13.738;2023-08-06T11:40:52;3.25;;;2.67;;
25249;SDS011;13201;51.148;13.738;2023-08-06T11:43:19;2.60;;;2.40;;
25249;SDS011;13201;51.148;13.738;2023-08-06T11:45:47;3.00;;;2.70;;
25249;SDS011;13201;51.148;13.738;2023-08-06T11:48:13;4.22;;;2.90;;
25249;SDS011;13201;51.148;13.738;2023-08-06T11:50:39;3.80;;;2.70;;
25249;SDS011;13201;51.148;13.738;2023-08-06T11:53:05;3.50;;;2.88;;
25249;SDS011;13201;51.148;13.738;2023-08-06T11:55:31;3.00;;;2.23;;
25249;SDS011;13201;51.148;13.738;2023-08-06T11:57:57;2.70;;;2.50;;
25249;SDS011;13201;51.148;13.738;2023-08-06T12:00:26;4.43;;;2.55;;
25249;SDS011;13201;51.148;13.738;2023-08-06T12:02:52;2.63;;;2.42;;
25249;SDS011;13201;51.148;13.738;2023-08-06T12:05:22;4.18;;;2.53;;
25249;SDS011;13201;51.148;13.738;2023-08-06T12:07:53;2.72;;;2.35;;
25249;SDS011;13201;51.148;13.738;2023-08-06T12:10:22;3.65;;;2.30;;
25249;SDS011;13201;51.148;13.738;2023-08-06T12:12:49;2.78;;;2.42;;
25249;SDS011;13201;51.148;13.738;2023-08-06T12:15:15;4.30;;;2.45;;
25249;SDS011;13201;51.148;13.738;2023-08-06T12:17:42;2.97;;;2.53;;
25249;SDS011;13201;51.148;13.738;2023-08-06T12:20:08;4.60;;;2.40;;
25249;SDS011;13201;51.148;13.738;2023-08-06T12:22:34;2.70;;;2.20;;
25249;SDS011;13201;51.148;13.738;2023-08-06T12:25:10;3.40;;;2.60;;
25249;SDS011;13201;51.148;13.738;2023-08-06T12:27:39;3.30;;;2.58;;
25249;SDS011;13201;51.148;13.738;2023-08-06T12:30:07;3.35;;;2.55;;
25249;SDS011;13201;51.148;13.738;2023-08-06T12:32:33;7.05;;;2.80;;
25249;SDS011;13201;51.148;13.738;2023-08-06T12:34:59;3.80;;;2.50;;
25249;SDS011;13201;51.148;13.738;2023-08-06T12:37:26;2.87;;;2.57;;
25249;SDS011;13201;51.148;13.738;2023-08-06T12:39:52;3.35;;;2.53;;
25249;SDS011;13201;51.148;13.738;2023-08-06T12:42:17;3.03;;;2.60;;
25249;SDS011;13201;51.148;13.738;2023-08-06T12:44:43;4.50;;;2.70;;
25249;SDS011;13201;51.148;13.738;2023-08-06T12:47:09;5.60;;;2.55;;
25249;SDS011;13201;51.148;13.738;2023-08-06T12:49:35;2.88;;;2.58;;
25249;SDS011;13201;51.148;13.738;2023-08-06T12:52:01;5.25;;;2.47;;
25249;SDS011;13201;51.148;13.738;2023-08-06T12:54:27;3.37;;;2.80;;
25249;SDS011;13201;51.148;13.738;2023-08-06T12:56:53;3.03;;;2.67;;
25249;SDS011;13201;51.148;13.738;2023-08-06T12:59:19;5.03;;;2.80;;
25249;SDS011;13201;51.148;13.738;2023-08-06T13:01:45;3.28;;;2.28;;
25249;SDS011;13201;51.148;13.738;2023-08-06T13:04:11;3.03;;;2.40;;
25249;SDS011;13201;51.148;13.738;2023-08-06T13:06:37;2.97;;;2.43;;
25249;SDS011;13201;51.148;13.738;2023-08-06T13:09:04;3.13;;;2.83;;
25249;SDS011;13201;51.148;13.738;2023-08-06T13:11:32;2.83;;;2.40;;
25249;SDS011;13201;51.148;13.738;2023-08-06T13:14:03;2.90;;;2.55;;
25249;SDS011;13201;51.148;13.738;2023-08-06T13:16:30;5.97;;;2.83;;
25249;SDS011;13201;51.148;13.738;2023-08-06T13:18:56;3.45;;;2.72;;
25249;SDS011;13201;51.148;13.738;2023-08-06T13:21:21;2.80;;;2.42;;
25249;SDS011;13201;51.148;13.738;2023-08-06T13:23:47;3.45;;;2.70;;
25249;SDS011;13201;51.148;13.738;2023-08-06T13:26:13;2.85;;;2.55;;
25249;SDS011;13201;51.148;13.738;2023-08-06T13:28:40;3.55;;;2.42;;
25249;SDS011;13201;51.148;13.738;2023-08-06T13:31:06;4.03;;;2.73;;
25249;SDS011;13201;51.148;13.738;2023-08-06T13:33:32;3.97;;;2.72;;
25249;SDS011;13201;51.148;13.738;2023-08-06T13:35:58;3.00;;;2.67;;
25249;SDS011;13201;51.148;13.738;2023-08-06T13:38:24;3.20;;;2.90;;
25249;SDS011;13201;51.148;13.738;2023-08-06T13:40:49;2.45;;;2.25;;
25249;SDS011;13201;51.148;13.738;2023-08-06T13:43:15;4.88;;;2.67;;
25249;SDS011;13201;51.148;13.738;2023-08-06T13:45:43;2.40;;;2.17;;
25249;SDS011;13201;51.148;13.738;2023-08-06T13:48:09;3.72;;;2.70;;
25249;SDS011;13201;51.148;13.738;2023-08-06T13:50:35;5.32;;;3.00;;
25249;SDS011;13201;51.148;13.738;2023-08-06T13:53:02;4.60;;;3.30;;
25249;SDS011;13201;51.148;13.738;2023-08-06T13:55:28;4.30;;;3.25;;
25249;SDS011;13201;51.148;13.738;2023-08-06T13:57:53;5.53;;;3.33;;
25249;SDS011;13201;51.148;13.738;2023-08-06T14:00:19;4.88;;;3.70;;
25249;SDS011;13201;51.148;13.738;2023-08-06T14:02:45;4.75;;;3.67;;
25249;SDS011;13201;51.148;13.738;2023-08-06T14:05:10;4.88;;;4.30;;
25249;SDS011;13201;51.148;13.738;2023-08-06T14:07:36;5.70;;;4.03;;
25249;SDS011;13201;51.148;13.738;2023-08-06T14:10:02;4.90;;;4.40;;
25249;SDS011;13201;51.148;13.738;2023-08-06T14:12:28;4.85;;;4.38;;
25249;SDS011;13201;51.148;13.738;2023-08-06T14:14:53;5.15;;;4.63;;
25249;SDS011;13201;51.148;13.738;2023-08-06T14:17:19;9.02;;;4.70;;
25249;SDS011;13201;51.148;13.738;2023-08-06T14:19:45;5.65;;;5.00;;
25249;SDS011;13201;51.148;13.738;2023-08-06T14:22:10;5.28;;;4.78;;
25249;SDS011;13201;51.148;13.738;2023-08-06T14:24:36;5.07;;;4.50;;
25249;SDS011;13201;51.148;13.738;2023-08-06T14:27:02;5.23;;;4.50;;
25249;SDS011;13201;51.148;13.738;2023-08-06T14:29:29;5.95;;;4.60;;
25249;SDS011;13201;51.148;13.738;2023-08-06T14:31:54;6.90;;;4.28;;
25249;SDS011;13201;51.148;13.738;2023-08-06T14:34:20;5.38;;;4.03;;
25249;SDS011;13201;51.148;13.738;2023-08-06T14:36:46;4.68;;;4.13;;
25249;SDS011;13201;51.148;13.738;2023-08-06T14:39:12;6.72;;;5.03;;
25249;SDS011;13201;51.148;13.738;2023-08-06T14:41:37;4.85;;;4.13;;
25249;SDS011;13201;51.148;13.738;2023-08-06T14:44:03;5.15;;;4.60;;
25249;SDS011;13201;51.148;13.738;2023-08-06T14:46:29;5.75;;;4.78;;
25249;SDS011;13201;51.148;13.738;2023-08-06T14:48:54;7.10;;;4.82;;
25249;SDS011;13201;51.148;13.738;2023-08-06T14:51:20;6.70;;;4.47;;
25249;SDS011;13201;51.148;13.738;2023-08-06T14:53:46;5.28;;;4.63;;
25249;SDS011;13201;51.148;13.738;2023-08-06T14:56:12;5.90;;;5.28;;
25249;SDS011;13201;51.148;13.738;2023-08-06T14:58:37;6.07;;;5.13;;
25249;SDS011;13201;51.148;13.738;2023-08-06T15:01:03;30.85;;;19.13;;
25249;SDS011;13201;51.148;13.738;2023-08-06T15:03:29;12.15;;;8.00;;
25249;SDS011;13201;51.148;13.738;2023-08-06T15:05:56;6.00;;;5.05;;
25249;SDS011;13201;51.148;13.738;2023-08-06T15:08:22;5.38;;;4.50;;